PWSweather.com
Personal Weather Stations
Station Observations

EtonMackayAU

Lat: -21.263, Lon: 148.975

Elevation: 106

Station Type: Davis Vantage Vue

http://aspgweather.com/cumulus/data.php

Latest ConditionsUpdated 9:16:00 AM GMT+10:10 Monday, Dec 17, 2018
Currently Today's Max Today's Min Today's Average
Temperature 80.1°F26.7°C 80.1°F26.7°C -119.7°F-84.3°C 35.9°F2.2°C
Dew Point 72.7°F22.6°C 73.8°F23.2°C -161.3°F-107.4°C 32.1°F0.1°C
Winds 4.3 mph W6.9 kmh W 10.6 mph -17.1 kmh - - 5.9 mph 9.5 kmh
Wind Gusts 8.7 mph14.0 kmh 23.0 mph37.0 kmh - -
Humidity 78% 100% 1% 89%
Pressure 29.60 in1002.4 mb 29.63 in1003.4 mb 29.54 in1000.3 mb -
Precipitation - 0.01 in0.3 mm - -
Hour Temp Dew Point Humidity Winds Wind Gusts Pressure Precip Precip Rate Daily Precip Total
09:16 AM 80.1°F26.7°C 72.7°F22.6°C 78% 4.3 mph W6.9 kmh W 8.7 mph14.0 kmh 29.60 in1002.4 mb 0.00 in0.0 mm 0.00 in0.0 mm 0.01 in0.3 mm
09:11 AM 80.1°F26.7°C 72.1°F22.3°C 77% 5.6 mph WSW9.0 kmh WSW 12.4 mph20.0 kmh 29.60 in1002.4 mb 0.00 in0.0 mm 0.00 in0.0 mm 0.01 in0.3 mm
09:06 AM 79.9°F26.6°C 73.8°F23.2°C 82% 7.5 mph WSW12.1 kmh WSW 12.4 mph20.0 kmh 29.60 in1002.4 mb 0.00 in0.0 mm 0.00 in0.0 mm 0.01 in0.3 mm
09:01 AM 79.9°F26.6°C 73.2°F22.9°C 80% 6.2 mph WSW10.0 kmh WSW 12.4 mph20.0 kmh 29.61 in1002.7 mb 0.00 in0.0 mm 0.00 in0.0 mm 0.01 in0.3 mm
08:56 AM 80.1°F26.7°C 72.3°F22.4°C 77% 4.3 mph SW6.9 kmh SW 10.6 mph17.1 kmh 29.61 in1002.7 mb 0.00 in0.0 mm 0.00 in0.0 mm 0.01 in0.3 mm
08:51 AM 79.9°F26.6°C 72.5°F22.5°C 78% 5.0 mph SW8.0 kmh SW 10.6 mph17.1 kmh 29.61 in1002.7 mb 0.00 in0.0 mm 0.00 in0.0 mm 0.01 in0.3 mm
08:46 AM 79.5°F26.4°C 72.7°F22.6°C 80% 6.8 mph SW10.9 kmh SW 14.3 mph23.0 kmh 29.61 in1002.7 mb 0.00 in0.0 mm 0.00 in0.0 mm 0.01 in0.3 mm
08:41 AM 79.0°F26.1°C 71.6°F22.0°C 78% 6.2 mph SW10.0 kmh SW 14.3 mph23.0 kmh 29.60 in1002.4 mb 0.00 in0.0 mm 0.00 in0.0 mm 0.01 in0.3 mm
08:36 AM 78.8°F26.0°C 72.5°F22.5°C 81% 5.6 mph SW9.0 kmh SW 14.3 mph23.0 kmh 29.60 in1002.4 mb 0.00 in0.0 mm 0.00 in0.0 mm 0.01 in0.3 mm
08:26 AM 78.3°F25.7°C 72.5°F22.5°C 83% 9.9 mph SW15.9 kmh SW 16.8 mph27.0 kmh 29.60 in1002.4 mb 0.00 in0.0 mm 0.00 in0.0 mm 0.01 in0.3 mm
08:21 AM 77.9°F25.5°C 72.7°F22.6°C 84% 9.9 mph SW15.9 kmh SW 16.8 mph27.0 kmh 29.60 in1002.4 mb 0.00 in0.0 mm 0.00 in0.0 mm 0.01 in0.3 mm
08:16 AM 77.7°F25.4°C 72.9°F22.7°C 85% 9.3 mph SW15.0 kmh SW 14.9 mph24.0 kmh 29.60 in1002.4 mb 0.00 in0.0 mm 0.00 in0.0 mm 0.01 in0.3 mm
08:11 AM 77.9°F25.5°C 72.0°F22.2°C 82% 8.7 mph SW14.0 kmh SW 14.3 mph23.0 kmh 29.60 in1002.4 mb 0.00 in0.0 mm 0.00 in0.0 mm 0.01 in0.3 mm
08:06 AM 77.7°F25.4°C 72.3°F22.4°C 84% 9.3 mph SW15.0 kmh SW 14.9 mph24.0 kmh 29.59 in1002.0 mb 0.00 in0.0 mm 0.00 in0.0 mm 0.01 in0.3 mm
08:01 AM 77.4°F25.2°C 72.1°F22.3°C 84% 9.9 mph SW15.9 kmh SW 19.3 mph31.1 kmh 29.59 in1002.0 mb 0.00 in0.0 mm 0.00 in0.0 mm 0.01 in0.3 mm
07:56 AM 77.4°F25.2°C 72.5°F22.5°C 85% 9.9 mph SW15.9 kmh SW 19.3 mph31.1 kmh 29.60 in1002.4 mb 0.00 in0.0 mm 0.00 in0.0 mm 0.01 in0.3 mm
07:51 AM 77.5°F25.3°C 72.1°F22.3°C 84% 9.9 mph SW15.9 kmh SW 19.3 mph31.1 kmh 29.60 in1002.4 mb 0.00 in0.0 mm 0.00 in0.0 mm 0.01 in0.3 mm
07:46 AM 77.7°F25.4°C 72.7°F22.6°C 85% 8.7 mph SW14.0 kmh SW 14.9 mph24.0 kmh 29.60 in1002.4 mb 0.00 in0.0 mm 0.00 in0.0 mm 0.01 in0.3 mm
07:41 AM 77.9°F25.5°C 72.0°F22.2°C 82% 7.5 mph SW12.1 kmh SW 14.9 mph24.0 kmh 29.60 in1002.4 mb 0.00 in0.0 mm 0.00 in0.0 mm 0.01 in0.3 mm
07:36 AM 78.3°F25.7°C 72.3°F22.4°C 82% 6.8 mph SW10.9 kmh SW 12.4 mph20.0 kmh 29.60 in1002.4 mb 0.00 in0.0 mm 0.00 in0.0 mm 0.01 in0.3 mm
07:31 AM 78.4°F25.8°C 72.0°F22.2°C 81% 8.1 mph SW13.0 kmh SW 23.0 mph37.0 kmh 29.60 in1002.4 mb 0.00 in0.0 mm 0.00 in0.0 mm 0.01 in0.3 mm
07:26 AM 78.8°F26.0°C 72.7°F22.6°C 82% 6.8 mph SW10.9 kmh SW 23.0 mph37.0 kmh 29.59 in1002.0 mb 0.00 in0.0 mm 0.00 in0.0 mm 0.01 in0.3 mm
07:21 AM 79.2°F26.2°C 71.6°F22.0°C 78% 6.2 mph SW10.0 kmh SW 23.0 mph37.0 kmh 29.60 in1002.4 mb 0.00 in0.0 mm 0.00 in0.0 mm 0.01 in0.3 mm
07:16 AM 79.5°F26.4°C 71.6°F22.0°C 77% 5.6 mph SW9.0 kmh SW 10.6 mph17.1 kmh 29.59 in1002.0 mb 0.00 in0.0 mm 0.00 in0.0 mm 0.01 in0.3 mm
07:11 AM 78.6°F25.9°C 72.5°F22.5°C 82% 7.5 mph SW12.1 kmh SW 14.3 mph23.0 kmh 29.59 in1002.0 mb 0.00 in0.0 mm 0.00 in0.0 mm 0.01 in0.3 mm
07:06 AM 77.9°F25.5°C 72.5°F22.5°C 84% 8.7 mph SW14.0 kmh SW 18.0 mph29.0 kmh 29.59 in1002.0 mb 0.00 in0.0 mm 0.00 in0.0 mm 0.01 in0.3 mm
07:01 AM 77.5°F25.3°C 72.1°F22.3°C 84% 9.9 mph SW15.9 kmh SW 18.0 mph29.0 kmh 29.59 in1002.0 mb 0.00 in0.0 mm 0.00 in0.0 mm 0.01 in0.3 mm
06:56 AM 77.0°F25.0°C 72.1°F22.3°C 85% 10.6 mph SW17.1 kmh SW 19.3 mph31.1 kmh 29.59 in1002.0 mb 0.00 in0.0 mm 0.00 in0.0 mm 0.01 in0.3 mm
06:51 AM 76.6°F24.8°C 72.5°F22.5°C 87% 10.6 mph SW17.1 kmh SW 19.3 mph31.1 kmh 29.58 in1001.7 mb 0.00 in0.0 mm 0.00 in0.0 mm 0.01 in0.3 mm
06:46 AM 76.1°F24.5°C 72.1°F22.3°C 88% 9.3 mph SW15.0 kmh SW 19.3 mph31.1 kmh 29.58 in1001.7 mb 0.01 in0.3 mm 0.00 in0.0 mm 0.01 in0.3 mm
06:41 AM 75.4°F24.1°C 73.2°F22.9°C 93% 8.1 mph WSW13.0 kmh WSW 16.8 mph27.0 kmh 29.58 in1001.7 mb 0.01 in0.3 mm 0.00 in0.0 mm 0.01 in0.3 mm
06:31 AM 74.1°F23.4°C 72.7°F22.6°C 95% 5.0 mph SSW8.0 kmh SSW 8.7 mph14.0 kmh 29.58 in1001.7 mb 0.01 in0.3 mm 0.00 in0.0 mm 0.01 in0.3 mm
06:21 AM 73.6°F23.1°C 72.1°F22.3°C 95% 5.6 mph S9.0 kmh S 10.6 mph17.1 kmh 29.58 in1001.7 mb 0.01 in0.3 mm 0.00 in0.0 mm 0.01 in0.3 mm
06:16 AM 73.4°F23.0°C 72.0°F22.2°C 95% 5.6 mph S9.0 kmh S 11.2 mph18.0 kmh 29.58 in1001.7 mb 0.01 in0.3 mm 0.00 in0.0 mm 0.01 in0.3 mm
06:11 AM 72.9°F22.7°C 72.1°F22.3°C 98% 5.6 mph SSW9.0 kmh SSW 11.2 mph18.0 kmh 29.58 in1001.7 mb 0.01 in0.3 mm 0.00 in0.0 mm 0.01 in0.3 mm
05:56 AM 72.7°F22.6°C 72.0°F22.2°C 98% 6.8 mph SW10.9 kmh SW 12.4 mph20.0 kmh 29.58 in1001.7 mb 0.01 in0.3 mm 0.09 in2.3 mm 0.01 in0.3 mm
05:51 AM 72.5°F22.5°C 72.5°F22.5°C 100% 5.0 mph W8.0 kmh W 6.2 mph10.0 kmh 29.58 in1001.7 mb 0.00 in0.0 mm 0.00 in0.0 mm 0.09 in2.3 mm
05:46 AM 72.1°F22.3°C 72.1°F22.3°C 100% 5.0 mph W8.0 kmh W 6.2 mph10.0 kmh 29.58 in1001.7 mb 0.00 in0.0 mm 0.00 in0.0 mm 0.09 in2.3 mm
05:41 AM -119.7°F-84.3°C -161.3°F-107.4°C 1% 5.0 mph W8.0 kmh W 6.2 mph10.0 kmh 29.58 in1001.7 mb 0.00 in0.0 mm 0.00 in0.0 mm 0.09 in2.3 mm
05:21 AM -119.7°F-84.3°C -119.7°F-84.3°C 100% 5.0 mph W8.0 kmh W 6.2 mph10.0 kmh 29.58 in1001.7 mb 0.00 in0.0 mm 0.00 in0.0 mm 0.09 in2.3 mm
04:56 AM -119.7°F-84.3°C -119.7°F-84.3°C 100% 5.0 mph W8.0 kmh W 6.2 mph10.0 kmh 29.57 in1001.4 mb 0.00 in0.0 mm 0.00 in0.0 mm 0.09 in2.3 mm
04:26 AM -119.7°F-84.3°C -119.7°F-84.3°C 100% 5.0 mph W8.0 kmh W 6.2 mph10.0 kmh 29.56 in1001.0 mb 0.00 in0.0 mm 0.00 in0.0 mm 0.09 in2.3 mm
04:06 AM -119.7°F-84.3°C -119.7°F-84.3°C 100% 5.0 mph W8.0 kmh W 6.2 mph10.0 kmh 29.55 in1000.7 mb 0.00 in0.0 mm 0.00 in0.0 mm 0.09 in2.3 mm
03:56 AM -119.7°F-84.3°C -161.3°F-107.4°C 1% 5.0 mph W8.0 kmh W 6.2 mph10.0 kmh 29.55 in1000.7 mb 0.00 in0.0 mm 0.00 in0.0 mm 0.09 in2.3 mm
03:31 AM -119.7°F-84.3°C -119.7°F-84.3°C 100% 5.0 mph W8.0 kmh W 6.2 mph10.0 kmh 29.55 in1000.7 mb 0.00 in0.0 mm 0.00 in0.0 mm 0.09 in2.3 mm
02:51 AM -119.7°F-84.3°C -119.7°F-84.3°C 100% 5.0 mph W8.0 kmh W 6.2 mph10.0 kmh 29.56 in1001.0 mb 0.00 in0.0 mm 0.00 in0.0 mm 0.09 in2.3 mm
02:46 AM -119.7°F-84.3°C -119.7°F-84.3°C 100% 5.0 mph W8.0 kmh W 6.2 mph10.0 kmh 29.56 in1001.0 mb 0.00 in0.0 mm 0.00 in0.0 mm 0.09 in2.3 mm
02:31 AM -119.7°F-84.3°C -119.7°F-84.3°C 100% 5.0 mph W8.0 kmh W 6.2 mph10.0 kmh 29.55 in1000.7 mb 0.00 in0.0 mm 0.00 in0.0 mm 0.09 in2.3 mm
02:26 AM -119.7°F-84.3°C -119.7°F-84.3°C 100% 5.0 mph W8.0 kmh W 6.2 mph10.0 kmh 29.55 in1000.7 mb 0.00 in0.0 mm 0.00 in0.0 mm 0.09 in2.3 mm
02:11 AM -119.7°F-84.3°C -119.7°F-84.3°C 100% 5.0 mph W8.0 kmh W 6.2 mph10.0 kmh 29.54 in1000.3 mb 0.00 in0.0 mm 0.00 in0.0 mm 0.09 in2.3 mm
02:06 AM -119.7°F-84.3°C -119.7°F-84.3°C 100% 5.0 mph W8.0 kmh W 6.2 mph10.0 kmh 29.55 in1000.7 mb 0.00 in0.0 mm 0.00 in0.0 mm 0.09 in2.3 mm
02:01 AM -119.7°F-84.3°C -119.7°F-84.3°C 100% 5.0 mph W8.0 kmh W 6.2 mph10.0 kmh 29.56 in1001.0 mb 0.00 in0.0 mm 0.00 in0.0 mm 0.09 in2.3 mm
01:56 AM 67.6°F19.8°C 67.6°F19.8°C 100% 5.0 mph W8.0 kmh W 6.2 mph10.0 kmh 29.57 in1001.4 mb 0.00 in0.0 mm 0.00 in0.0 mm 0.09 in2.3 mm
01:51 AM 67.6°F19.8°C 67.6°F19.8°C 100% 4.3 mph W6.9 kmh W 6.2 mph10.0 kmh 29.57 in1001.4 mb 0.00 in0.0 mm 0.00 in0.0 mm 0.09 in2.3 mm
01:46 AM 67.8°F19.9°C 67.8°F19.9°C 100% 3.1 mph W5.0 kmh W 6.2 mph10.0 kmh 29.57 in1001.4 mb 0.00 in0.0 mm 0.00 in0.0 mm 0.09 in2.3 mm
01:41 AM 68.2°F20.1°C 68.2°F20.1°C 100% 1.9 mph WNW3.1 kmh WNW 3.7 mph6.0 kmh 29.57 in1001.4 mb 0.00 in0.0 mm 0.00 in0.0 mm 0.09 in2.3 mm
01:31 AM 67.8°F19.9°C 67.8°F19.9°C 100% 1.2 mph SE1.9 kmh SE 8.1 mph13.0 kmh 29.58 in1001.7 mb 0.00 in0.0 mm 0.00 in0.0 mm 0.09 in2.3 mm
01:21 AM 67.6°F19.8°C 67.6°F19.8°C 100% 1.9 mph S3.1 kmh S 5.0 mph8.0 kmh 29.58 in1001.7 mb 0.00 in0.0 mm 0.00 in0.0 mm 0.09 in2.3 mm
01:11 AM 67.6°F19.8°C 67.6°F19.8°C 100% 2.5 mph SSE4.0 kmh SSE 6.2 mph10.0 kmh 29.59 in1002.0 mb 0.00 in0.0 mm 0.00 in0.0 mm 0.09 in2.3 mm
01:06 AM 67.5°F19.7°C 67.5°F19.7°C 100% 4.3 mph SSE6.9 kmh SSE 8.1 mph13.0 kmh 29.59 in1002.0 mb 0.00 in0.0 mm 0.00 in0.0 mm 0.09 in2.3 mm
01:01 AM 67.5°F19.7°C 67.5°F19.7°C 100% 6.2 mph SE10.0 kmh SE 11.2 mph18.0 kmh 29.60 in1002.4 mb 0.00 in0.0 mm 0.00 in0.0 mm 0.09 in2.3 mm
12:56 AM 67.3°F19.6°C 67.3°F19.6°C 100% 6.2 mph SE10.0 kmh SE 11.2 mph18.0 kmh 29.60 in1002.4 mb 0.00 in0.0 mm 0.00 in0.0 mm 0.09 in2.3 mm
12:51 AM 67.5°F19.7°C 67.5°F19.7°C 100% 3.7 mph SSE6.0 kmh SSE 8.7 mph14.0 kmh 29.61 in1002.7 mb 0.01 in0.3 mm 0.00 in0.0 mm 0.09 in2.3 mm
12:46 AM 67.6°F19.8°C 67.6°F19.8°C 100% 3.1 mph S5.0 kmh S 8.7 mph14.0 kmh 29.61 in1002.7 mb 0.01 in0.3 mm 0.00 in0.0 mm 0.09 in2.3 mm
12:41 AM 67.8°F19.9°C 67.8°F19.9°C 100% 2.5 mph SSW4.0 kmh SSW 8.7 mph14.0 kmh 29.61 in1002.7 mb 0.02 in0.5 mm 0.00 in0.0 mm 0.09 in2.3 mm
12:31 AM 68.2°F20.1°C 68.2°F20.1°C 100% 2.5 mph SW4.0 kmh SW 8.1 mph13.0 kmh 29.62 in1003.0 mb 0.03 in0.8 mm 0.00 in0.0 mm 0.09 in2.3 mm
12:26 AM 68.2°F20.1°C 68.2°F20.1°C 100% 3.1 mph SSW5.0 kmh SSW 8.1 mph13.0 kmh 29.62 in1003.0 mb 0.04 in1.0 mm 0.00 in0.0 mm 0.09 in2.3 mm
12:16 AM 68.4°F20.2°C 68.4°F20.2°C 100% 4.3 mph SW6.9 kmh SW 10.6 mph17.1 kmh 29.62 in1003.0 mb 0.06 in1.5 mm 0.00 in0.0 mm 0.09 in2.3 mm
12:11 AM 68.4°F20.2°C 68.4°F20.2°C 100% 3.7 mph SW6.0 kmh SW 10.6 mph17.1 kmh 29.63 in1003.4 mb 0.07 in1.8 mm 0.00 in0.0 mm 0.09 in2.3 mm
12:06 AM 68.4°F20.2°C 68.4°F20.2°C 100% 5.0 mph SW8.0 kmh SW 8.1 mph13.0 kmh 29.63 in1003.4 mb 0.07 in1.8 mm 0.00 in0.0 mm 0.09 in2.3 mm
12:01 AM 68.5°F20.3°C 68.5°F20.3°C 100% 5.6 mph SW9.0 kmh SW 8.7 mph14.0 kmh 29.63 in1003.4 mb 0.09 in2.3 mm 5.67 in144.0 mm 0.09 in2.3 mm